sensor_id;sensor_type;location;lat;lon;timestamp;P1;durP1;ratioP1;P2;durP2;ratioP2
40827;SDS011;26549;50.918;5.338;2022-08-01T00:01:41;1.75;;;1.00;;
40827;SDS011;26549;50.918;5.338;2022-08-01T00:04:07;2.78;;;0.85;;
40827;SDS011;26549;50.918;5.338;2022-08-01T00:06:32;2.28;;;0.88;;
40827;SDS011;26549;50.918;5.338;2022-08-01T00:08:58;5.05;;;1.00;;
40827;SDS011;26549;50.918;5.338;2022-08-01T00:11:24;2.15;;;0.98;;
40827;SDS011;26549;50.918;5.338;2022-08-01T00:13:50;1.05;;;0.77;;
40827;SDS011;26549;50.918;5.338;2022-08-01T00:16:16;2.13;;;0.88;;
40827;SDS011;26549;50.918;5.338;2022-08-01T00:18:42;3.85;;;0.90;;
40827;SDS011;26549;50.918;5.338;2022-08-01T00:21:08;1.55;;;0.95;;
40827;SDS011;26549;50.918;5.338;2022-08-01T00:23:34;1.55;;;0.98;;
40827;SDS011;26549;50.918;5.338;2022-08-01T00:26:00;4.90;;;1.73;;
40827;SDS011;26549;50.918;5.338;2022-08-01T00:28:26;1.45;;;0.70;;
40827;SDS011;26549;50.918;5.338;2022-08-01T00:30:52;2.40;;;0.90;;
40827;SDS011;26549;50.918;5.338;2022-08-01T00:33:17;2.75;;;0.80;;
40827;SDS011;26549;50.918;5.338;2022-08-01T00:35:43;3.40;;;0.90;;
40827;SDS011;26549;50.918;5.338;2022-08-01T00:38:09;3.85;;;0.90;;
40827;SDS011;26549;50.918;5.338;2022-08-01T00:40:36;3.13;;;0.80;;
40827;SDS011;26549;50.918;5.338;2022-08-01T00:43:02;2.30;;;1.45;;
40827;SDS011;26549;50.918;5.338;2022-08-01T00:45:29;2.50;;;1.20;;
40827;SDS011;26549;50.918;5.338;2022-08-01T00:47:54;3.25;;;0.88;;
40827;SDS011;26549;50.918;5.338;2022-08-01T00:50:20;3.55;;;1.30;;
40827;SDS011;26549;50.918;5.338;2022-08-01T00:52:46;1.85;;;0.65;;
40827;SDS011;26549;50.918;5.338;2022-08-01T00:55:12;1.10;;;0.57;;
40827;SDS011;26549;50.918;5.338;2022-08-01T00:57:39;1.65;;;0.70;;
40827;SDS011;26549;50.918;5.338;2022-08-01T01:00:05;1.73;;;0.85;;
40827;SDS011;26549;50.918;5.338;2022-08-01T01:02:32;1.10;;;0.85;;
40827;SDS011;26549;50.918;5.338;2022-08-01T01:04:59;2.25;;;0.60;;
40827;SDS011;26549;50.918;5.338;2022-08-01T01:07:29;4.60;;;0.63;;
40827;SDS011;26549;50.918;5.338;2022-08-01T01:10:09;2.33;;;0.75;;
40827;SDS011;26549;50.918;5.338;2022-08-01T01:12:48;1.65;;;0.93;;
40827;SDS011;26549;50.918;5.338;2022-08-01T01:20:27;1.85;;;0.68;;
40827;SDS011;26549;50.918;5.338;2022-08-01T01:23:13;4.63;;;1.08;;
40827;SDS011;26549;50.918;5.338;2022-08-01T01:29:04;3.03;;;0.93;;
40827;SDS011;26549;50.918;5.338;2022-08-01T01:31:42;1.88;;;1.02;;
40827;SDS011;26549;50.918;5.338;2022-08-01T01:34:15;1.80;;;0.90;;
40827;SDS011;26549;50.918;5.338;2022-08-01T01:36:43;2.17;;;0.90;;
40827;SDS011;26549;50.918;5.338;2022-08-01T01:39:12;1.95;;;1.10;;
40827;SDS011;26549;50.918;5.338;2022-08-01T01:41:40;3.53;;;1.00;;
40827;SDS011;26549;50.918;5.338;2022-08-01T01:44:08;5.50;;;1.20;;
40827;SDS011;26549;50.918;5.338;2022-08-01T01:46:38;2.65;;;0.73;;
40827;SDS011;26549;50.918;5.338;2022-08-01T01:49:06;2.50;;;1.05;;
40827;SDS011;26549;50.918;5.338;2022-08-01T01:51:35;1.40;;;1.05;;
40827;SDS011;26549;50.918;5.338;2022-08-01T01:54:03;1.85;;;1.40;;
40827;SDS011;26549;50.918;5.338;2022-08-01T01:56:32;1.15;;;1.05;;
40827;SDS011;26549;50.918;5.338;2022-08-01T01:58:59;3.55;;;1.27;;
40827;SDS011;26549;50.918;5.338;2022-08-01T02:01:28;2.72;;;1.20;;
40827;SDS011;26549;50.918;5.338;2022-08-01T02:03:56;2.15;;;1.42;;
40827;SDS011;26549;50.918;5.338;2022-08-01T02:06:24;3.15;;;1.15;;
40827;SDS011;26549;50.918;5.338;2022-08-01T02:08:52;2.10;;;1.17;;
40827;SDS011;26549;50.918;5.338;2022-08-01T02:11:20;2.60;;;1.70;;
40827;SDS011;26549;50.918;5.338;2022-08-01T02:14:01;5.70;;;1.58;;
40827;SDS011;26549;50.918;5.338;2022-08-01T02:16:29;1.45;;;0.90;;
40827;SDS011;26549;50.918;5.338;2022-08-01T02:18:59;3.80;;;1.20;;
40827;SDS011;26549;50.918;5.338;2022-08-01T02:24:35;3.58;;;1.65;;
40827;SDS011;26549;50.918;5.338;2022-08-01T02:27:07;3.63;;;2.40;;
40827;SDS011;26549;50.918;5.338;2022-08-01T02:29:42;7.75;;;1.60;;
40827;SDS011;26549;50.918;5.338;2022-08-01T02:32:16;2.38;;;1.00;;
40827;SDS011;26549;50.918;5.338;2022-08-01T02:34:49;3.25;;;2.15;;
40827;SDS011;26549;50.918;5.338;2022-08-01T02:37:16;3.03;;;2.10;;
40827;SDS011;26549;50.918;5.338;2022-08-01T02:39:44;3.38;;;1.00;;
40827;SDS011;26549;50.918;5.338;2022-08-01T02:42:13;2.35;;;1.20;;
40827;SDS011;26549;50.918;5.338;2022-08-01T02:44:41;2.58;;;1.55;;
40827;SDS011;26549;50.918;5.338;2022-08-01T02:47:12;1.55;;;1.08;;
40827;SDS011;26549;50.918;5.338;2022-08-01T02:49:42;2.38;;;1.25;;
40827;SDS011;26549;50.918;5.338;2022-08-01T02:52:13;1.80;;;1.30;;
40827;SDS011;26549;50.918;5.338;2022-08-01T02:54:41;4.45;;;1.35;;
40827;SDS011;26549;50.918;5.338;2022-08-01T02:57:11;6.22;;;1.15;;
40827;SDS011;26549;50.918;5.338;2022-08-01T02:59:39;1.95;;;1.30;;
40827;SDS011;26549;50.918;5.338;2022-08-01T03:02:06;2.83;;;1.45;;
40827;SDS011;26549;50.918;5.338;2022-08-01T03:04:33;3.13;;;1.50;;
40827;SDS011;26549;50.918;5.338;2022-08-01T03:07:02;2.42;;;1.40;;
40827;SDS011;26549;50.918;5.338;2022-08-01T03:09:32;3.78;;;1.58;;
40827;SDS011;26549;50.918;5.338;2022-08-01T03:12:00;2.45;;;1.50;;
40827;SDS011;26549;50.918;5.338;2022-08-01T03:14:29;5.25;;;1.67;;
40827;SDS011;26549;50.918;5.338;2022-08-01T03:16:58;3.10;;;1.58;;
40827;SDS011;26549;50.918;5.338;2022-08-01T03:19:26;4.50;;;1.80;;
40827;SDS011;26549;50.918;5.338;2022-08-01T03:21:53;4.60;;;1.92;;
40827;SDS011;26549;50.918;5.338;2022-08-01T03:24:26;3.20;;;2.15;;
40827;SDS011;26549;50.918;5.338;2022-08-01T03:26:53;3.08;;;1.90;;
40827;SDS011;26549;50.918;5.338;2022-08-01T03:29:23;2.65;;;2.13;;
40827;SDS011;26549;50.918;5.338;2022-08-01T03:31:55;5.55;;;2.03;;
40827;SDS011;26549;50.918;5.338;2022-08-01T03:34:22;4.05;;;1.70;;
40827;SDS011;26549;50.918;5.338;2022-08-01T03:37:03;5.35;;;2.10;;
40827;SDS011;26549;50.918;5.338;2022-08-01T03:39:37;2.20;;;1.90;;
40827;SDS011;26549;50.918;5.338;2022-08-01T03:44:38;3.50;;;1.50;;
40827;SDS011;26549;50.918;5.338;2022-08-01T03:47:07;4.53;;;2.22;;
40827;SDS011;26549;50.918;5.338;2022-08-01T03:49:41;4.25;;;1.95;;
40827;SDS011;26549;50.918;5.338;2022-08-01T03:52:10;5.93;;;2.35;;
40827;SDS011;26549;50.918;5.338;2022-08-01T03:54:38;4.18;;;2.55;;
40827;SDS011;26549;50.918;5.338;2022-08-01T03:57:07;6.00;;;1.95;;
40827;SDS011;26549;50.918;5.338;2022-08-01T03:59:35;3.97;;;1.90;;
40827;SDS011;26549;50.918;5.338;2022-08-01T04:02:02;5.88;;;2.45;;
40827;SDS011;26549;50.918;5.338;2022-08-01T04:04:29;4.43;;;2.45;;
40827;SDS011;26549;50.918;5.338;2022-08-01T04:06:55;5.13;;;2.75;;
40827;SDS011;26549;50.918;5.338;2022-08-01T04:09:21;6.35;;;2.50;;
40827;SDS011;26549;50.918;5.338;2022-08-01T04:11:47;6.18;;;2.80;;
40827;SDS011;26549;50.918;5.338;2022-08-01T04:14:14;5.88;;;2.65;;
40827;SDS011;26549;50.918;5.338;2022-08-01T04:16:40;5.53;;;2.22;;
40827;SDS011;26549;50.918;5.338;2022-08-01T04:19:05;4.78;;;1.92;;
40827;SDS011;26549;50.918;5.338;2022-08-01T04:21:32;4.43;;;2.85;;
40827;SDS011;26549;50.918;5.338;2022-08-01T04:24:05;8.75;;;2.50;;
40827;SDS011;26549;50.918;5.338;2022-08-01T04:29:02;4.32;;;2.70;;
40827;SDS011;26549;50.918;5.338;2022-08-01T04:31:31;5.40;;;2.25;;
40827;SDS011;26549;50.918;5.338;2022-08-01T04:33:57;6.55;;;2.83;;
40827;SDS011;26549;50.918;5.338;2022-08-01T04:36:26;4.35;;;2.33;;
40827;SDS011;26549;50.918;5.338;2022-08-01T04:38:57;6.05;;;3.13;;
40827;SDS011;26549;50.918;5.338;2022-08-01T04:41:25;6.90;;;2.80;;
40827;SDS011;26549;50.918;5.338;2022-08-01T04:43:52;6.32;;;2.65;;
40827;SDS011;26549;50.918;5.338;2022-08-01T04:46:19;5.07;;;2.83;;
40827;SDS011;26549;50.918;5.338;2022-08-01T04:48:45;6.47;;;3.00;;
40827;SDS011;26549;50.918;5.338;2022-08-01T04:51:14;6.05;;;3.28;;
40827;SDS011;26549;50.918;5.338;2022-08-01T04:53:42;7.40;;;3.40;;
40827;SDS011;26549;50.918;5.338;2022-08-01T04:56:08;6.03;;;3.42;;
40827;SDS011;26549;50.918;5.338;2022-08-01T04:58:34;6.90;;;4.30;;
40827;SDS011;26549;50.918;5.338;2022-08-01T05:01:01;4.93;;;3.25;;
40827;SDS011;26549;50.918;5.338;2022-08-01T05:03:27;4.60;;;3.50;;
40827;SDS011;26549;50.918;5.338;2022-08-01T05:05:52;5.55;;;3.10;;
40827;SDS011;26549;50.918;5.338;2022-08-01T05:08:18;5.20;;;2.80;;
40827;SDS011;26549;50.918;5.338;2022-08-01T05:10:44;8.57;;;3.25;;
40827;SDS011;26549;50.918;5.338;2022-08-01T05:13:09;10.18;;;3.65;;
40827;SDS011;26549;50.918;5.338;2022-08-01T05:15:35;3.95;;;2.60;;
40827;SDS011;26549;50.918;5.338;2022-08-01T05:18:01;6.55;;;3.80;;
40827;SDS011;26549;50.918;5.338;2022-08-01T05:20:27;6.97;;;4.80;;
40827;SDS011;26549;50.918;5.338;2022-08-01T05:22:53;7.93;;;4.50;;
40827;SDS011;26549;50.918;5.338;2022-08-01T05:25:22;6.18;;;3.97;;
40827;SDS011;26549;50.918;5.338;2022-08-01T05:27:49;6.60;;;3.97;;
40827;SDS011;26549;50.918;5.338;2022-08-01T05:30:16;7.15;;;3.83;;
40827;SDS011;26549;50.918;5.338;2022-08-01T05:32:42;6.43;;;4.68;;
40827;SDS011;26549;50.918;5.338;2022-08-01T05:35:08;14.38;;;6.05;;
40827;SDS011;26549;50.918;5.338;2022-08-01T05:37:34;14.60;;;6.55;;
40827;SDS011;26549;50.918;5.338;2022-08-01T05:40:00;11.85;;;7.10;;
40827;SDS011;26549;50.918;5.338;2022-08-01T05:42:27;13.57;;;7.32;;
40827;SDS011;26549;50.918;5.338;2022-08-01T05:44:53;13.07;;;7.57;;
40827;SDS011;26549;50.918;5.338;2022-08-01T05:47:18;11.95;;;6.90;;
40827;SDS011;26549;50.918;5.338;2022-08-01T05:49:44;11.60;;;6.60;;
40827;SDS011;26549;50.918;5.338;2022-08-01T05:52:10;10.77;;;6.78;;
40827;SDS011;26549;50.918;5.338;2022-08-01T05:54:37;10.77;;;5.93;;
40827;SDS011;26549;50.918;5.338;2022-08-01T05:57:03;11.60;;;5.82;;
40827;SDS011;26549;50.918;5.338;2022-08-01T05:59:32;9.02;;;6.10;;
40827;SDS011;26549;50.918;5.338;2022-08-01T06:01:57;10.23;;;6.95;;
40827;SDS011;26549;50.918;5.338;2022-08-01T06:04:23;9.45;;;6.85;;
40827;SDS011;26549;50.918;5.338;2022-08-01T06:06:51;8.68;;;5.70;;
40827;SDS011;26549;50.918;5.338;2022-08-01T06:09:17;7.00;;;3.40;;
40827;SDS011;26549;50.918;5.338;2022-08-01T06:11:43;3.95;;;2.35;;
40827;SDS011;26549;50.918;5.338;2022-08-01T06:14:09;3.40;;;2.30;;
40827;SDS011;26549;50.918;5.338;2022-08-01T06:16:35;3.65;;;2.72;;
40827;SDS011;26549;50.918;5.338;2022-08-01T06:19:03;3.67;;;2.70;;
40827;SDS011;26549;50.918;5.338;2022-08-01T06:21:33;3.92;;;2.70;;
40827;SDS011;26549;50.918;5.338;2022-08-01T06:23:59;4.78;;;3.13;;
40827;SDS011;26549;50.918;5.338;2022-08-01T06:26:25;4.85;;;3.00;;
40827;SDS011;26549;50.918;5.338;2022-08-01T06:28:52;5.60;;;2.85;;
40827;SDS011;26549;50.918;5.338;2022-08-01T06:31:17;3.53;;;2.20;;
40827;SDS011;26549;50.918;5.338;2022-08-01T06:33:43;6.60;;;3.08;;
40827;SDS011;26549;50.918;5.338;2022-08-01T06:36:09;5.28;;;2.67;;
40827;SDS011;26549;50.918;5.338;2022-08-01T06:38:38;3.72;;;2.55;;
40827;SDS011;26549;50.918;5.338;2022-08-01T06:41:04;4.82;;;3.28;;
40827;SDS011;26549;50.918;5.338;2022-08-01T06:43:30;8.10;;;2.80;;
40827;SDS011;26549;50.918;5.338;2022-08-01T06:45:56;4.45;;;2.85;;
40827;SDS011;26549;50.918;5.338;2022-08-01T06:48:22;6.38;;;4.32;;
40827;SDS011;26549;50.918;5.338;2022-08-01T06:50:48;8.80;;;4.20;;
40827;SDS011;26549;50.918;5.338;2022-08-01T06:53:14;7.35;;;4.18;;
40827;SDS011;26549;50.918;5.338;2022-08-01T06:55:39;9.18;;;4.63;;
40827;SDS011;26549;50.918;5.338;2022-08-01T06:58:05;6.90;;;4.63;;
40827;SDS011;26549;50.918;5.338;2022-08-01T07:00:31;9.05;;;5.05;;
40827;SDS011;26549;50.918;5.338;2022-08-01T07:02:57;6.88;;;5.18;;
40827;SDS011;26549;50.918;5.338;2022-08-01T07:05:24;10.75;;;6.50;;
40827;SDS011;26549;50.918;5.338;2022-08-01T07:07:50;7.93;;;5.00;;
40827;SDS011;26549;50.918;5.338;2022-08-01T07:10:16;8.55;;;5.20;;
40827;SDS011;26549;50.918;5.338;2022-08-01T07:12:42;7.13;;;4.38;;
40827;SDS011;26549;50.918;5.338;2022-08-01T07:15:09;7.78;;;4.38;;
40827;SDS011;26549;50.918;5.338;2022-08-01T07:17:39;6.82;;;4.63;;
40827;SDS011;26549;50.918;5.338;2022-08-01T07:20:06;7.22;;;5.00;;
40827;SDS011;26549;50.918;5.338;2022-08-01T07:22:34;9.50;;;4.90;;
40827;SDS011;26549;50.918;5.338;2022-08-01T07:24:59;9.63;;;5.32;;
40827;SDS011;26549;50.918;5.338;2022-08-01T07:27:25;9.45;;;4.45;;
40827;SDS011;26549;50.918;5.338;2022-08-01T07:29:51;7.45;;;4.60;;
40827;SDS011;26549;50.918;5.338;2022-08-01T07:32:17;6.07;;;4.35;;
40827;SDS011;26549;50.918;5.338;2022-08-01T07:34:43;7.55;;;4.60;;
40827;SDS011;26549;50.918;5.338;2022-08-01T07:37:08;11.85;;;4.15;;
40827;SDS011;26549;50.918;5.338;2022-08-01T07:39:35;9.45;;;5.05;;
40827;SDS011;26549;50.918;5.338;2022-08-01T07:42:01;6.40;;;3.95;;
40827;SDS011;26549;50.918;5.338;2022-08-01T07:44:27;4.63;;;3.67;;
40827;SDS011;26549;50.918;5.338;2022-08-01T07:46:53;5.82;;;3.47;;
40827;SDS011;26549;50.918;5.338;2022-08-01T07:49:19;8.15;;;3.78;;
40827;SDS011;26549;50.918;5.338;2022-08-01T07:51:46;8.40;;;4.20;;
40827;SDS011;26549;50.918;5.338;2022-08-01T07:54:12;11.32;;;4.45;;
40827;SDS011;26549;50.918;5.338;2022-08-01T07:56:38;5.35;;;3.20;;
40827;SDS011;26549;50.918;5.338;2022-08-01T07:59:04;3.38;;;2.28;;
40827;SDS011;26549;50.918;5.338;2022-08-01T08:01:30;6.65;;;2.90;;
40827;SDS011;26549;50.918;5.338;2022-08-01T08:03:56;3.05;;;1.70;;
40827;SDS011;26549;50.918;5.338;2022-08-01T08:06:22;3.22;;;2.13;;
40827;SDS011;26549;50.918;5.338;2022-08-01T08:08:48;2.47;;;2.20;;
40827;SDS011;26549;50.918;5.338;2022-08-01T08:11:14;4.20;;;2.90;;
40827;SDS011;26549;50.918;5.338;2022-08-01T08:13:40;3.63;;;2.58;;
40827;SDS011;26549;50.918;5.338;2022-08-01T08:16:05;4.68;;;3.17;;
40827;SDS011;26549;50.918;5.338;2022-08-01T08:18:31;4.93;;;2.72;;
40827;SDS011;26549;50.918;5.338;2022-08-01T08:20:57;4.32;;;3.40;;
40827;SDS011;26549;50.918;5.338;2022-08-01T08:23:22;6.45;;;3.55;;
40827;SDS011;26549;50.918;5.338;2022-08-01T08:26:06;5.57;;;3.60;;
40827;SDS011;26549;50.918;5.338;2022-08-01T08:28:32;5.03;;;3.10;;
40827;SDS011;26549;50.918;5.338;2022-08-01T08:30:58;6.57;;;3.13;;
40827;SDS011;26549;50.918;5.338;2022-08-01T08:33:23;7.07;;;3.30;;
40827;SDS011;26549;50.918;5.338;2022-08-01T08:35:49;6.07;;;3.63;;
40827;SDS011;26549;50.918;5.338;2022-08-01T08:38:15;6.30;;;3.60;;
40827;SDS011;26549;50.918;5.338;2022-08-01T08:40:41;5.75;;;3.28;;
40827;SDS011;26549;50.918;5.338;2022-08-01T08:43:07;4.97;;;3.30;;
40827;SDS011;26549;50.918;5.338;2022-08-01T08:45:34;5.03;;;3.22;;
40827;SDS011;26549;50.918;5.338;2022-08-01T08:48:00;4.53;;;3.30;;
40827;SDS011;26549;50.918;5.338;2022-08-01T08:50:27;4.32;;;2.78;;
40827;SDS011;26549;50.918;5.338;2022-08-01T08:52:54;7.25;;;2.85;;
40827;SDS011;26549;50.918;5.338;2022-08-01T08:55:21;2.53;;;2.25;;
40827;SDS011;26549;50.918;5.338;2022-08-01T08:57:48;3.13;;;2.05;;
40827;SDS011;26549;50.918;5.338;2022-08-01T09:00:14;2.67;;;2.17;;
40827;SDS011;26549;50.918;5.338;2022-08-01T09:02:42;3.28;;;2.17;;
40827;SDS011;26549;50.918;5.338;2022-08-01T09:05:08;2.65;;;1.95;;
40827;SDS011;26549;50.918;5.338;2022-08-01T09:07:34;2.65;;;2.30;;
40827;SDS011;26549;50.918;5.338;2022-08-01T09:10:00;3.83;;;1.70;;
40827;SDS011;26549;50.918;5.338;2022-08-01T09:12:26;2.63;;;2.00;;
40827;SDS011;26549;50.918;5.338;2022-08-01T09:14:52;2.95;;;1.70;;
40827;SDS011;26549;50.918;5.338;2022-08-01T09:17:18;3.35;;;2.90;;
40827;SDS011;26549;50.918;5.338;2022-08-01T09:19:52;3.53;;;2.15;;
40827;SDS011;26549;50.918;5.338;2022-08-01T09:22:20;2.60;;;2.30;;
40827;SDS011;26549;50.918;5.338;2022-08-01T09:24:58;2.95;;;2.67;;
40827;SDS011;26549;50.918;5.338;2022-08-01T09:27:38;2.67;;;2.13;;
40827;SDS011;26549;50.918;5.338;2022-08-01T09:30:14;2.47;;;1.75;;
40827;SDS011;26549;50.918;5.338;2022-08-01T09:35:29;1.83;;;1.73;;
40827;SDS011;26549;50.918;5.338;2022-08-01T09:38:12;5.75;;;1.98;;
40827;SDS011;26549;50.918;5.338;2022-08-01T09:40:48;2.55;;;2.05;;
40827;SDS011;26549;50.918;5.338;2022-08-01T09:43:28;1.95;;;1.75;;
40827;SDS011;26549;50.918;5.338;2022-08-01T09:45:55;1.90;;;1.33;;
40827;SDS011;26549;50.918;5.338;2022-08-01T09:48:22;2.75;;;1.15;;
40827;SDS011;26549;50.918;5.338;2022-08-01T09:50:51;1.90;;;1.38;;
40827;SDS011;26549;50.918;5.338;2022-08-01T09:53:18;1.00;;;0.90;;
40827;SDS011;26549;50.918;5.338;2022-08-01T09:55:44;0.98;;;0.90;;
40827;SDS011;26549;50.918;5.338;2022-08-01T09:58:13;1.88;;;1.30;;
40827;SDS011;26549;50.918;5.338;2022-08-01T10:00:39;1.25;;;1.15;;
40827;SDS011;26549;50.918;5.338;2022-08-01T10:03:20;2.50;;;1.40;;
40827;SDS011;26549;50.918;5.338;2022-08-01T10:08:19;2.05;;;1.30;;
40827;SDS011;26549;50.918;5.338;2022-08-01T10:13:39;2.28;;;1.48;;
40827;SDS011;26549;50.918;5.338;2022-08-01T10:16:08;1.92;;;1.40;;
40827;SDS011;26549;50.918;5.338;2022-08-01T10:18:37;1.52;;;1.00;;
40827;SDS011;26549;50.918;5.338;2022-08-01T10:21:08;2.90;;;1.17;;
40827;SDS011;26549;50.918;5.338;2022-08-01T10:23:37;1.20;;;1.02;;
40827;SDS011;26549;50.918;5.338;2022-08-01T10:26:16;1.80;;;0.82;;
40827;SDS011;26549;50.918;5.338;2022-08-01T10:28:48;1.20;;;1.02;;
40827;SDS011;26549;50.918;5.338;2022-08-01T10:31:17;2.95;;;1.17;;
40827;SDS011;26549;50.918;5.338;2022-08-01T10:33:47;3.58;;;1.00;;
40827;SDS011;26549;50.918;5.338;2022-08-01T10:36:17;3.60;;;1.30;;
40827;SDS011;26549;50.918;5.338;2022-08-01T10:38:47;2.58;;;1.00;;
40827;SDS011;26549;50.918;5.338;2022-08-01T10:41:15;1.63;;;1.00;;
40827;SDS011;26549;50.918;5.338;2022-08-01T10:43:43;3.30;;;1.30;;
40827;SDS011;26549;50.918;5.338;2022-08-01T10:46:15;1.33;;;0.82;;
40827;SDS011;26549;50.918;5.338;2022-08-01T10:48:57;2.05;;;1.10;;
40827;SDS011;26549;50.918;5.338;2022-08-01T10:51:30;1.83;;;1.20;;
40827;SDS011;26549;50.918;5.338;2022-08-01T10:54:02;2.28;;;1.00;;
40827;SDS011;26549;50.918;5.338;2022-08-01T11:01:58;1.95;;;0.93;;
40827;SDS011;26549;50.918;5.338;2022-08-01T11:07:17;1.80;;;1.00;;
40827;SDS011;26549;50.918;5.338;2022-08-01T11:09:46;0.90;;;0.80;;
40827;SDS011;26549;50.918;5.338;2022-08-01T11:12:17;1.90;;;1.00;;
40827;SDS011;26549;50.918;5.338;2022-08-01T11:17:44;3.25;;;1.10;;
40827;SDS011;26549;50.918;5.338;2022-08-01T11:20:14;1.10;;;0.95;;
40827;SDS011;26549;50.918;5.338;2022-08-01T11:30:53;0.85;;;0.85;;
40827;SDS011;26549;50.918;5.338;2022-08-01T11:33:48;1.52;;;0.70;;
40827;SDS011;26549;50.918;5.338;2022-08-01T11:39:10;1.00;;;1.00;;
40827;SDS011;26549;50.918;5.338;2022-08-01T11:41:38;2.22;;;0.90;;
40827;SDS011;26549;50.918;5.338;2022-08-01T11:44:05;1.30;;;0.80;;
40827;SDS011;26549;50.918;5.338;2022-08-01T11:54:27;1.13;;;1.02;;
40827;SDS011;26549;50.918;5.338;2022-08-01T11:57:00;1.15;;;1.05;;
40827;SDS011;26549;50.918;5.338;2022-08-01T11:59:44;1.23;;;0.90;;
40827;SDS011;26549;50.918;5.338;2022-08-01T12:02:24;2.85;;;0.77;;
40827;SDS011;26549;50.918;5.338;2022-08-01T12:04:56;0.63;;;0.60;;
40827;SDS011;26549;50.918;5.338;2022-08-01T12:07:29;0.70;;;0.70;;
40827;SDS011;26549;50.918;5.338;2022-08-01T12:10:04;2.80;;;0.63;;
40827;SDS011;26549;50.918;5.338;2022-08-01T12:12:32;1.10;;;1.00;;
40827;SDS011;26549;50.918;5.338;2022-08-01T12:20:00;3.30;;;0.75;;
40827;SDS011;26549;50.918;5.338;2022-08-01T12:22:28;2.85;;;0.80;;
40827;SDS011;26549;50.918;5.338;2022-08-01T12:24:55;0.80;;;0.80;;
40827;SDS011;26549;50.918;5.338;2022-08-01T12:27:29;1.27;;;0.82;;
40827;SDS011;26549;50.918;5.338;2022-08-01T12:29:58;1.65;;;0.90;;
40827;SDS011;26549;50.918;5.338;2022-08-01T12:32:27;1.60;;;0.75;;
40827;SDS011;26549;50.918;5.338;2022-08-01T12:35:02;0.77;;;0.70;;
40827;SDS011;26549;50.918;5.338;2022-08-01T12:37:28;1.05;;;0.63;;
40827;SDS011;26549;50.918;5.338;2022-08-01T12:39:55;1.20;;;1.10;;
40827;SDS011;26549;50.918;5.338;2022-08-01T12:42:22;1.05;;;0.50;;
40827;SDS011;26549;50.918;5.338;2022-08-01T12:44:52;0.50;;;0.50;;
40827;SDS011;26549;50.918;5.338;2022-08-01T12:47:22;1.23;;;0.50;;
40827;SDS011;26549;50.918;5.338;2022-08-01T12:49:50;0.77;;;0.55;;
40827;SDS011;26549;50.918;5.338;2022-08-01T12:52:17;4.68;;;0.52;;
40827;SDS011;26549;50.918;5.338;2022-08-01T12:57:40;0.93;;;0.47;;
40827;SDS011;26549;50.918;5.338;2022-08-01T13:00:25;2.00;;;0.50;;
40827;SDS011;26549;50.918;5.338;2022-08-01T13:03:05;0.50;;;0.50;;
40827;SDS011;26549;50.918;5.338;2022-08-01T13:05:51;0.50;;;0.50;;
40827;SDS011;26549;50.918;5.338;2022-08-01T13:08:25;0.88;;;0.47;;
40827;SDS011;26549;50.918;5.338;2022-08-01T13:11:07;1.15;;;0.50;;
40827;SDS011;26549;50.918;5.338;2022-08-01T13:13:43;0.65;;;0.40;;
40827;SDS011;26549;50.918;5.338;2022-08-01T13:16:09;0.85;;;0.40;;
40827;SDS011;26549;50.918;5.338;2022-08-01T13:18:36;1.83;;;0.60;;
40827;SDS011;26549;50.918;5.338;2022-08-01T13:21:13;3.25;;;0.77;;
40827;SDS011;26549;50.918;5.338;2022-08-01T13:34:17;1.27;;;0.68;;
40827;SDS011;26549;50.918;5.338;2022-08-01T13:36:43;1.00;;;0.60;;
40827;SDS011;26549;50.918;5.338;2022-08-01T13:44:25;5.43;;;1.02;;
40827;SDS011;26549;50.918;5.338;2022-08-01T13:49:21;3.42;;;1.33;;
40827;SDS011;26549;50.918;5.338;2022-08-01T13:51:49;1.45;;;0.70;;
40827;SDS011;26549;50.918;5.338;2022-08-01T13:54:17;1.40;;;0.93;;
40827;SDS011;26549;50.918;5.338;2022-08-01T13:56:44;3.88;;;1.00;;
40827;SDS011;26549;50.918;5.338;2022-08-01T13:59:13;3.25;;;0.80;;
40827;SDS011;26549;50.918;5.338;2022-08-01T14:01:39;3.10;;;0.98;;
40827;SDS011;26549;50.918;5.338;2022-08-01T14:06:37;2.72;;;0.75;;
40827;SDS011;26549;50.918;5.338;2022-08-01T14:09:04;2.95;;;1.30;;
40827;SDS011;26549;50.918;5.338;2022-08-01T14:13:59;1.48;;;0.88;;
40827;SDS011;26549;50.918;5.338;2022-08-01T14:16:25;1.75;;;0.90;;
40827;SDS011;26549;50.918;5.338;2022-08-01T14:21:29;3.13;;;0.95;;
40827;SDS011;26549;50.918;5.338;2022-08-01T14:23:56;3.17;;;0.95;;
40827;SDS011;26549;50.918;5.338;2022-08-01T14:26:25;2.15;;;1.00;;
40827;SDS011;26549;50.918;5.338;2022-08-01T14:28:51;1.67;;;1.10;;
40827;SDS011;26549;50.918;5.338;2022-08-01T14:31:17;2.67;;;1.08;;
40827;SDS011;26549;50.918;5.338;2022-08-01T14:33:43;0.65;;;0.65;;
40827;SDS011;26549;50.918;5.338;2022-08-01T14:36:11;1.70;;;0.90;;
40827;SDS011;26549;50.918;5.338;2022-08-01T14:41:06;3.65;;;1.58;;
40827;SDS011;26549;50.918;5.338;2022-08-01T14:43:33;1.50;;;1.23;;
40827;SDS011;26549;50.918;5.338;2022-08-01T14:48:30;2.40;;;0.88;;
40827;SDS011;26549;50.918;5.338;2022-08-01T14:50:57;2.25;;;0.93;;
40827;SDS011;26549;50.918;5.338;2022-08-01T14:53:25;1.30;;;0.80;;
40827;SDS011;26549;50.918;5.338;2022-08-01T14:55:51;0.88;;;0.85;;
40827;SDS011;26549;50.918;5.338;2022-08-01T14:58:16;0.90;;;0.85;;
40827;SDS011;26549;50.918;5.338;2022-08-01T15:00:42;2.38;;;1.23;;
40827;SDS011;26549;50.918;5.338;2022-08-01T15:03:10;2.30;;;1.15;;
40827;SDS011;26549;50.918;5.338;2022-08-01T15:05:36;0.90;;;0.80;;
40827;SDS011;26549;50.918;5.338;2022-08-01T15:08:03;2.97;;;1.40;;
40827;SDS011;26549;50.918;5.338;2022-08-01T15:13:00;1.80;;;0.80;;
40827;SDS011;26549;50.918;5.338;2022-08-01T15:15:33;1.48;;;0.65;;
40827;SDS011;26549;50.918;5.338;2022-08-01T15:17:59;14.23;;;1.55;;
40827;SDS011;26549;50.918;5.338;2022-08-01T15:20:28;3.90;;;1.23;;
40827;SDS011;26549;50.918;5.338;2022-08-01T15:25:25;1.25;;;0.70;;
40827;SDS011;26549;50.918;5.338;2022-08-01T15:27:53;1.58;;;1.02;;
40827;SDS011;26549;50.918;5.338;2022-08-01T15:30:23;1.30;;;0.88;;
40827;SDS011;26549;50.918;5.338;2022-08-01T15:32:50;2.58;;;0.80;;
40827;SDS011;26549;50.918;5.338;2022-08-01T15:35:18;4.10;;;1.33;;
40827;SDS011;26549;50.918;5.338;2022-08-01T15:37:47;1.48;;;0.98;;
40827;SDS011;26549;50.918;5.338;2022-08-01T15:40:16;4.10;;;0.88;;
40827;SDS011;26549;50.918;5.338;2022-08-01T15:42:44;2.50;;;1.00;;
40827;SDS011;26549;50.918;5.338;2022-08-01T15:45:10;2.28;;;1.05;;
40827;SDS011;26549;50.918;5.338;2022-08-01T15:47:41;2.30;;;0.93;;
40827;SDS011;26549;50.918;5.338;2022-08-01T15:50:13;1.67;;;0.70;;
40827;SDS011;26549;50.918;5.338;2022-08-01T15:52:39;2.17;;;0.70;;
40827;SDS011;26549;50.918;5.338;2022-08-01T15:55:10;2.53;;;1.25;;
40827;SDS011;26549;50.918;5.338;2022-08-01T15:57:36;2.80;;;0.90;;
40827;SDS011;26549;50.918;5.338;2022-08-01T16:00:03;1.75;;;0.90;;
40827;SDS011;26549;50.918;5.338;2022-08-01T16:05:02;2.85;;;0.90;;
40827;SDS011;26549;50.918;5.338;2022-08-01T16:07:30;3.45;;;0.80;;
40827;SDS011;26549;50.918;5.338;2022-08-01T16:09:56;1.67;;;0.88;;
40827;SDS011;26549;50.918;5.338;2022-08-01T16:12:22;3.60;;;0.70;;
40827;SDS011;26549;50.918;5.338;2022-08-01T16:14:53;2.40;;;0.68;;
40827;SDS011;26549;50.918;5.338;2022-08-01T16:17:23;4.15;;;1.15;;
40827;SDS011;26549;50.918;5.338;2022-08-01T16:19:50;1.85;;;1.23;;
40827;SDS011;26549;50.918;5.338;2022-08-01T16:22:30;2.10;;;0.80;;
40827;SDS011;26549;50.918;5.338;2022-08-01T16:24:58;3.92;;;0.90;;
40827;SDS011;26549;50.918;5.338;2022-08-01T16:27:24;3.38;;;1.10;;
40827;SDS011;26549;50.918;5.338;2022-08-01T16:29:51;1.75;;;0.90;;
40827;SDS011;26549;50.918;5.338;2022-08-01T16:32:19;2.90;;;0.95;;
40827;SDS011;26549;50.918;5.338;2022-08-01T16:34:48;1.23;;;0.90;;
40827;SDS011;26549;50.918;5.338;2022-08-01T16:37:14;2.58;;;1.33;;